aviador You're here:

RJCK Decoded Metar

KUSHIRO AIRPORT in JAPAN
Report Time2017-10-24 00:00:00
UTC Time2017-10-24 00:15:30
Flight Rules vfr VFR
Wind260° at 05 kt
W.Decomp.*RWY 35: 0.7 kt HW 5 kt LCW
W.Rank260° ranks 16
Current wind is below 260° avg. (9.1)
Visibility9999 m
Phenomena:N/A
Clouds:Few 040 Hf
Expected CloudBase > 3,200 ft AGL from Temp-Dew spread
CeilingNone
Temp08°C (ISA -6)
Dew Point00°C (57% RH)
AAT4.2°C
QNH1018 hPa
Density Alt-525 ft
Elevation322 ft
Report Wrong Elevation
Raw Report
METAR RJCK 240000Z 26005KT 9999 FEW040 08/00 Q1018=

Extra information for RJCK:More info

Metar Taf Metar & Taf Last 4 Metars F.Rules Stats Wind Profile Meteogram Temp Stats Airport Information Weather charts Add Link Nearby VenuesMetar ALERT Operation Metar Decoded Social comments